sensor_id;sensor_type;location;lat;lon;timestamp;P1;durP1;ratioP1;P2;durP2;ratioP2
43682;SDS011;29285;52.128;21.060;2022-12-19T00:00:06;21.13;;;9.87;;
43682;SDS011;29285;52.128;21.060;2022-12-19T00:05:09;20.23;;;10.07;;
43682;SDS011;29285;52.128;21.060;2022-12-19T00:10:11;17.53;;;9.00;;
43682;SDS011;29285;52.128;21.060;2022-12-19T00:15:12;17.50;;;7.60;;
43682;SDS011;29285;52.128;21.060;2022-12-19T00:20:13;16.70;;;7.90;;
43682;SDS011;29285;52.128;21.060;2022-12-19T00:25:14;21.43;;;11.63;;
43682;SDS011;29285;52.128;21.060;2022-12-19T00:30:16;19.90;;;9.73;;
43682;SDS011;29285;52.128;21.060;2022-12-19T00:35:17;16.13;;;7.63;;
43682;SDS011;29285;52.128;21.060;2022-12-19T00:40:18;17.57;;;7.83;;
43682;SDS011;29285;52.128;21.060;2022-12-19T00:45:20;19.20;;;8.93;;
43682;SDS011;29285;52.128;21.060;2022-12-19T00:50:21;20.30;;;9.40;;
43682;SDS011;29285;52.128;21.060;2022-12-19T00:55:22;18.77;;;9.90;;
43682;SDS011;29285;52.128;21.060;2022-12-19T01:00:24;19.90;;;10.07;;
43682;SDS011;29285;52.128;21.060;2022-12-19T01:05:25;24.20;;;10.67;;
43682;SDS011;29285;52.128;21.060;2022-12-19T01:10:26;23.00;;;11.67;;
43682;SDS011;29285;52.128;21.060;2022-12-19T01:15:28;18.17;;;9.70;;
43682;SDS011;29285;52.128;21.060;2022-12-19T01:20:29;18.60;;;9.47;;
43682;SDS011;29285;52.128;21.060;2022-12-19T01:25:31;22.97;;;11.83;;
43682;SDS011;29285;52.128;21.060;2022-12-19T01:30:38;24.10;;;11.30;;
43682;SDS011;29285;52.128;21.060;2022-12-19T01:35:40;22.27;;;10.70;;
43682;SDS011;29285;52.128;21.060;2022-12-19T01:40:50;22.70;;;10.93;;
43682;SDS011;29285;52.128;21.060;2022-12-19T01:45:55;20.93;;;10.93;;
43682;SDS011;29285;52.128;21.060;2022-12-19T01:51:18;20.53;;;10.27;;
43682;SDS011;29285;52.128;21.060;2022-12-19T01:56:25;22.47;;;11.83;;
43682;SDS011;29285;52.128;21.060;2022-12-19T02:01:29;25.70;;;12.83;;
43682;SDS011;29285;52.128;21.060;2022-12-19T02:06:30;25.30;;;11.63;;
43682;SDS011;29285;52.128;21.060;2022-12-19T02:11:34;24.90;;;11.30;;
43682;SDS011;29285;52.128;21.060;2022-12-19T02:33:07;25.57;;;13.17;;
43682;SDS011;29285;52.128;21.060;2022-12-19T02:38:15;24.97;;;11.90;;
43682;SDS011;29285;52.128;21.060;2022-12-19T02:43:41;24.73;;;11.47;;
43682;SDS011;29285;52.128;21.060;2022-12-19T02:48:47;24.30;;;11.70;;
43682;SDS011;29285;52.128;21.060;2022-12-19T02:53:49;22.97;;;11.60;;
43682;SDS011;29285;52.128;21.060;2022-12-19T03:04:30;25.27;;;12.40;;
43682;SDS011;29285;52.128;21.060;2022-12-19T03:15:07;28.53;;;13.43;;
43682;SDS011;29285;52.128;21.060;2022-12-19T03:20:22;25.20;;;11.93;;
43682;SDS011;29285;52.128;21.060;2022-12-19T03:25:22;25.77;;;12.90;;
43682;SDS011;29285;52.128;21.060;2022-12-19T03:30:25;22.53;;;13.53;;
43682;SDS011;29285;52.128;21.060;2022-12-19T03:35:29;23.60;;;12.65;;
43682;SDS011;29285;52.128;21.060;2022-12-19T03:40:33;27.50;;;13.43;;
43682;SDS011;29285;52.128;21.060;2022-12-19T03:45:44;28.15;;;12.82;;
43682;SDS011;29285;52.128;21.060;2022-12-19T04:01:47;25.33;;;12.47;;
43682;SDS011;29285;52.128;21.060;2022-12-19T04:06:51;26.63;;;11.43;;
43682;SDS011;29285;52.128;21.060;2022-12-19T04:11:57;26.80;;;13.27;;
43682;SDS011;29285;52.128;21.060;2022-12-19T04:22:28;24.10;;;12.27;;
43682;SDS011;29285;52.128;21.060;2022-12-19T04:28:01;24.57;;;11.50;;
43682;SDS011;29285;52.128;21.060;2022-12-19T04:33:05;24.37;;;12.13;;
43682;SDS011;29285;52.128;21.060;2022-12-19T04:38:07;24.00;;;11.27;;
43682;SDS011;29285;52.128;21.060;2022-12-19T04:43:08;28.53;;;12.73;;
43682;SDS011;29285;52.128;21.060;2022-12-19T04:48:09;28.50;;;12.87;;
43682;SDS011;29285;52.128;21.060;2022-12-19T04:53:11;23.73;;;12.17;;
43682;SDS011;29285;52.128;21.060;2022-12-19T04:58:12;24.37;;;12.57;;
43682;SDS011;29285;52.128;21.060;2022-12-19T05:03:14;30.73;;;14.33;;
43682;SDS011;29285;52.128;21.060;2022-12-19T05:08:15;24.83;;;14.57;;
43682;SDS011;29285;52.128;21.060;2022-12-19T05:13:16;25.70;;;12.90;;
43682;SDS011;29285;52.128;21.060;2022-12-19T05:18:18;25.73;;;13.60;;
43682;SDS011;29285;52.128;21.060;2022-12-19T05:23:19;28.67;;;13.07;;
43682;SDS011;29285;52.128;21.060;2022-12-19T05:28:21;29.30;;;14.57;;
43682;SDS011;29285;52.128;21.060;2022-12-19T05:33:22;33.30;;;15.67;;
43682;SDS011;29285;52.128;21.060;2022-12-19T05:38:24;30.20;;;13.93;;
43682;SDS011;29285;52.128;21.060;2022-12-19T05:43:26;31.30;;;15.10;;
43682;SDS011;29285;52.128;21.060;2022-12-19T05:48:27;31.20;;;15.63;;
43682;SDS011;29285;52.128;21.060;2022-12-19T05:53:28;29.03;;;13.83;;
43682;SDS011;29285;52.128;21.060;2022-12-19T05:58:30;29.23;;;12.97;;
43682;SDS011;29285;52.128;21.060;2022-12-19T06:03:31;25.60;;;13.17;;
43682;SDS011;29285;52.128;21.060;2022-12-19T06:08:33;28.80;;;14.80;;
43682;SDS011;29285;52.128;21.060;2022-12-19T06:13:35;23.27;;;12.80;;
43682;SDS011;29285;52.128;21.060;2022-12-19T06:18:37;28.23;;;13.27;;
43682;SDS011;29285;52.128;21.060;2022-12-19T06:23:40;26.87;;;12.27;;
43682;SDS011;29285;52.128;21.060;2022-12-19T06:28:41;29.60;;;14.83;;
43682;SDS011;29285;52.128;21.060;2022-12-19T06:33:43;26.33;;;13.13;;
43682;SDS011;29285;52.128;21.060;2022-12-19T06:38:44;29.63;;;14.10;;
43682;SDS011;29285;52.128;21.060;2022-12-19T06:43:46;30.97;;;14.23;;
43682;SDS011;29285;52.128;21.060;2022-12-19T06:48:47;32.00;;;13.90;;
43682;SDS011;29285;52.128;21.060;2022-12-19T06:53:49;31.47;;;13.77;;
43682;SDS011;29285;52.128;21.060;2022-12-19T06:58:50;30.23;;;13.23;;
43682;SDS011;29285;52.128;21.060;2022-12-19T07:03:52;29.80;;;13.80;;
43682;SDS011;29285;52.128;21.060;2022-12-19T07:08:54;27.77;;;13.87;;
43682;SDS011;29285;52.128;21.060;2022-12-19T07:13:55;33.90;;;15.30;;
43682;SDS011;29285;52.128;21.060;2022-12-19T07:18:57;27.13;;;13.77;;
43682;SDS011;29285;52.128;21.060;2022-12-19T07:23:59;32.33;;;14.63;;
43682;SDS011;29285;52.128;21.060;2022-12-19T07:29:00;33.10;;;14.90;;
43682;SDS011;29285;52.128;21.060;2022-12-19T07:34:02;33.70;;;15.03;;
43682;SDS011;29285;52.128;21.060;2022-12-19T07:39:04;28.70;;;15.77;;
43682;SDS011;29285;52.128;21.060;2022-12-19T07:44:05;30.73;;;14.83;;
43682;SDS011;29285;52.128;21.060;2022-12-19T07:49:06;39.03;;;15.37;;
43682;SDS011;29285;52.128;21.060;2022-12-19T07:54:08;26.50;;;14.00;;
43682;SDS011;29285;52.128;21.060;2022-12-19T07:59:10;28.57;;;13.47;;
43682;SDS011;29285;52.128;21.060;2022-12-19T08:04:12;30.37;;;16.60;;
43682;SDS011;29285;52.128;21.060;2022-12-19T08:09:13;29.00;;;15.60;;
43682;SDS011;29285;52.128;21.060;2022-12-19T08:14:15;31.27;;;13.90;;
43682;SDS011;29285;52.128;21.060;2022-12-19T08:19:16;33.93;;;15.07;;
43682;SDS011;29285;52.128;21.060;2022-12-19T08:24:17;30.90;;;15.47;;
43682;SDS011;29285;52.128;21.060;2022-12-19T08:29:18;34.43;;;16.20;;
43682;SDS011;29285;52.128;21.060;2022-12-19T08:34:20;29.50;;;14.17;;
43682;SDS011;29285;52.128;21.060;2022-12-19T08:39:21;36.07;;;18.33;;
43682;SDS011;29285;52.128;21.060;2022-12-19T08:44:23;31.33;;;17.27;;
43682;SDS011;29285;52.128;21.060;2022-12-19T08:49:24;30.57;;;15.77;;
43682;SDS011;29285;52.128;21.060;2022-12-19T08:54:26;32.20;;;15.60;;
43682;SDS011;29285;52.128;21.060;2022-12-19T08:59:27;31.33;;;15.50;;
43682;SDS011;29285;52.128;21.060;2022-12-19T09:04:28;34.60;;;16.10;;
43682;SDS011;29285;52.128;21.060;2022-12-19T09:09:30;35.03;;;15.87;;
43682;SDS011;29285;52.128;21.060;2022-12-19T09:14:32;32.70;;;15.90;;
43682;SDS011;29285;52.128;21.060;2022-12-19T09:19:34;30.20;;;15.27;;
43682;SDS011;29285;52.128;21.060;2022-12-19T09:24:36;33.77;;;17.23;;
43682;SDS011;29285;52.128;21.060;2022-12-19T09:29:37;34.70;;;15.87;;
43682;SDS011;29285;52.128;21.060;2022-12-19T09:34:38;33.60;;;15.30;;
43682;SDS011;29285;52.128;21.060;2022-12-19T09:39:40;32.80;;;16.60;;
43682;SDS011;29285;52.128;21.060;2022-12-19T09:44:50;31.50;;;16.40;;
43682;SDS011;29285;52.128;21.060;2022-12-19T09:49:54;31.17;;;14.07;;
43682;SDS011;29285;52.128;21.060;2022-12-19T10:00:24;25.73;;;13.17;;
43682;SDS011;29285;52.128;21.060;2022-12-19T10:10:59;27.83;;;13.57;;
43682;SDS011;29285;52.128;21.060;2022-12-19T10:16:13;29.73;;;13.80;;
43682;SDS011;29285;52.128;21.060;2022-12-19T10:31:53;25.23;;;12.47;;
43682;SDS011;29285;52.128;21.060;2022-12-19T10:37:08;28.93;;;13.83;;
43682;SDS011;29285;52.128;21.060;2022-12-19T10:42:29;31.80;;;13.93;;
43682;SDS011;29285;52.128;21.060;2022-12-19T10:47:48;26.83;;;13.97;;
43682;SDS011;29285;52.128;21.060;2022-12-19T10:58:32;30.57;;;13.83;;
43682;SDS011;29285;52.128;21.060;2022-12-19T11:03:28;25.60;;;12.80;;
43682;SDS011;29285;52.128;21.060;2022-12-19T11:18:43;29.43;;;16.80;;
43682;SDS011;29285;52.128;21.060;2022-12-19T11:23:52;29.42;;;14.68;;
43682;SDS011;29285;52.128;21.060;2022-12-19T11:28:56;28.52;;;15.63;;
43682;SDS011;29285;52.128;21.060;2022-12-19T11:34:04;25.17;;;13.85;;
43682;SDS011;29285;52.128;21.060;2022-12-19T11:39:22;27.02;;;16.02;;
43682;SDS011;29285;52.128;21.060;2022-12-19T11:44:45;23.18;;;14.05;;
43682;SDS011;29285;52.128;21.060;2022-12-19T11:49:56;23.05;;;15.60;;
43682;SDS011;29285;52.128;21.060;2022-12-19T12:00:27;21.87;;;13.00;;
43682;SDS011;29285;52.128;21.060;2022-12-19T12:10:59;24.45;;;15.28;;
43682;SDS011;29285;52.128;21.060;2022-12-19T12:16:23;23.30;;;14.40;;
43682;SDS011;29285;52.128;21.060;2022-12-19T12:21:30;22.75;;;15.08;;
43682;SDS011;29285;52.128;21.060;2022-12-19T12:26:41;22.40;;;14.30;;
43682;SDS011;29285;52.128;21.060;2022-12-19T12:32:19;24.27;;;14.80;;
43682;SDS011;29285;52.128;21.060;2022-12-19T12:37:47;24.92;;;16.32;;
43682;SDS011;29285;52.128;21.060;2022-12-19T12:48:23;21.95;;;15.90;;
43682;SDS011;29285;52.128;21.060;2022-12-19T12:53:41;24.00;;;16.55;;
43682;SDS011;29285;52.128;21.060;2022-12-19T13:03:55;27.70;;;18.23;;
43682;SDS011;29285;52.128;21.060;2022-12-19T13:19:52;27.25;;;15.53;;
43682;SDS011;29285;52.128;21.060;2022-12-19T13:31:11;23.40;;;15.13;;
43682;SDS011;29285;52.128;21.060;2022-12-19T13:36:42;25.43;;;16.20;;
43682;SDS011;29285;52.128;21.060;2022-12-19T13:41:29;28.42;;;15.75;;
43682;SDS011;29285;52.128;21.060;2022-12-19T13:46:54;29.25;;;14.10;;
43682;SDS011;29285;52.128;21.060;2022-12-19T13:51:56;30.10;;;14.38;;
43682;SDS011;29285;52.128;21.060;2022-12-19T13:56:59;30.45;;;15.68;;
43682;SDS011;29285;52.128;21.060;2022-12-19T14:02:07;30.27;;;15.33;;
43682;SDS011;29285;52.128;21.060;2022-12-19T14:12:40;27.80;;;14.77;;
43682;SDS011;29285;52.128;21.060;2022-12-19T14:18:15;30.85;;;17.42;;
43682;SDS011;29285;52.128;21.060;2022-12-19T14:23:24;28.43;;;14.77;;
43682;SDS011;29285;52.128;21.060;2022-12-19T14:28:42;30.87;;;17.20;;
43682;SDS011;29285;52.128;21.060;2022-12-19T14:33:54;31.87;;;16.20;;
43682;SDS011;29285;52.128;21.060;2022-12-19T14:38:57;36.63;;;17.50;;
43682;SDS011;29285;52.128;21.060;2022-12-19T14:43:59;30.43;;;15.10;;
43682;SDS011;29285;52.128;21.060;2022-12-19T14:49:00;30.77;;;15.20;;
43682;SDS011;29285;52.128;21.060;2022-12-19T15:04:46;31.27;;;15.23;;
43682;SDS011;29285;52.128;21.060;2022-12-19T15:09:59;35.27;;;17.27;;
43682;SDS011;29285;52.128;21.060;2022-12-19T15:15:15;33.40;;;16.47;;
43682;SDS011;29285;52.128;21.060;2022-12-19T15:20:24;34.47;;;15.57;;
43682;SDS011;29285;52.128;21.060;2022-12-19T15:25:26;34.77;;;16.27;;
43682;SDS011;29285;52.128;21.060;2022-12-19T15:30:27;29.90;;;13.67;;
43682;SDS011;29285;52.128;21.060;2022-12-19T15:40:32;33.80;;;16.13;;
43682;SDS011;29285;52.128;21.060;2022-12-19T15:45:33;35.30;;;17.27;;
43682;SDS011;29285;52.128;21.060;2022-12-19T15:50:35;36.20;;;16.60;;
43682;SDS011;29285;52.128;21.060;2022-12-19T15:55:36;31.37;;;16.97;;
43682;SDS011;29285;52.128;21.060;2022-12-19T16:00:39;37.07;;;16.80;;
43682;SDS011;29285;52.128;21.060;2022-12-19T16:05:46;35.40;;;16.53;;
43682;SDS011;29285;52.128;21.060;2022-12-19T16:10:50;34.97;;;17.83;;
43682;SDS011;29285;52.128;21.060;2022-12-19T16:15:53;33.13;;;18.20;;
43682;SDS011;29285;52.128;21.060;2022-12-19T16:20:55;38.90;;;17.37;;
43682;SDS011;29285;52.128;21.060;2022-12-19T16:25:56;34.20;;;17.47;;
43682;SDS011;29285;52.128;21.060;2022-12-19T16:31:11;36.40;;;16.70;;
43682;SDS011;29285;52.128;21.060;2022-12-19T16:36:07;41.23;;;20.30;;
43682;SDS011;29285;52.128;21.060;2022-12-19T16:41:13;35.70;;;17.27;;
43682;SDS011;29285;52.128;21.060;2022-12-19T16:46:21;36.97;;;19.50;;
43682;SDS011;29285;52.128;21.060;2022-12-19T16:51:26;33.70;;;16.57;;
43682;SDS011;29285;52.128;21.060;2022-12-19T16:56:38;38.90;;;19.03;;
43682;SDS011;29285;52.128;21.060;2022-12-19T17:01:41;34.77;;;18.00;;
43682;SDS011;29285;52.128;21.060;2022-12-19T17:06:44;42.77;;;19.67;;
43682;SDS011;29285;52.128;21.060;2022-12-19T17:11:49;31.77;;;16.07;;
43682;SDS011;29285;52.128;21.060;2022-12-19T17:16:55;32.57;;;17.17;;
43682;SDS011;29285;52.128;21.060;2022-12-19T17:21:58;39.53;;;20.53;;
43682;SDS011;29285;52.128;21.060;2022-12-19T17:26:59;40.57;;;18.53;;
43682;SDS011;29285;52.128;21.060;2022-12-19T17:32:00;36.77;;;19.10;;
43682;SDS011;29285;52.128;21.060;2022-12-19T17:37:03;40.10;;;20.57;;
43682;SDS011;29285;52.128;21.060;2022-12-19T17:42:15;38.27;;;18.63;;
43682;SDS011;29285;52.128;21.060;2022-12-19T17:47:18;40.23;;;19.10;;
43682;SDS011;29285;52.128;21.060;2022-12-19T17:52:20;41.47;;;20.07;;
43682;SDS011;29285;52.128;21.060;2022-12-19T17:57:21;42.97;;;19.43;;
43682;SDS011;29285;52.128;21.060;2022-12-19T18:02:23;39.93;;;19.80;;
43682;SDS011;29285;52.128;21.060;2022-12-19T18:07:27;36.73;;;19.35;;
43682;SDS011;29285;52.128;21.060;2022-12-19T18:12:28;45.10;;;20.60;;
43682;SDS011;29285;52.128;21.060;2022-12-19T18:17:29;36.67;;;19.67;;
43682;SDS011;29285;52.128;21.060;2022-12-19T18:22:31;40.37;;;20.37;;
43682;SDS011;29285;52.128;21.060;2022-12-19T18:27:32;32.03;;;16.87;;
43682;SDS011;29285;52.128;21.060;2022-12-19T18:32:33;40.47;;;20.20;;
43682;SDS011;29285;52.128;21.060;2022-12-19T18:37:34;40.37;;;19.60;;
43682;SDS011;29285;52.128;21.060;2022-12-19T18:42:35;45.07;;;19.90;;
43682;SDS011;29285;52.128;21.060;2022-12-19T18:47:37;40.33;;;19.17;;
43682;SDS011;29285;52.128;21.060;2022-12-19T18:52:38;37.33;;;19.20;;
43682;SDS011;29285;52.128;21.060;2022-12-19T18:57:39;43.63;;;21.20;;
43682;SDS011;29285;52.128;21.060;2022-12-19T19:02:44;47.03;;;22.50;;
43682;SDS011;29285;52.128;21.060;2022-12-19T19:07:54;43.30;;;20.33;;
43682;SDS011;29285;52.128;21.060;2022-12-19T19:12:57;48.67;;;22.90;;
43682;SDS011;29285;52.128;21.060;2022-12-19T19:17:59;41.90;;;20.90;;
43682;SDS011;29285;52.128;21.060;2022-12-19T19:23:05;44.50;;;20.33;;
43682;SDS011;29285;52.128;21.060;2022-12-19T19:28:10;45.13;;;21.63;;
43682;SDS011;29285;52.128;21.060;2022-12-19T19:33:13;41.17;;;21.77;;
43682;SDS011;29285;52.128;21.060;2022-12-19T19:38:27;39.83;;;19.90;;
43682;SDS011;29285;52.128;21.060;2022-12-19T19:43:30;44.53;;;20.80;;
43682;SDS011;29285;52.128;21.060;2022-12-19T19:48:33;46.43;;;23.67;;
43682;SDS011;29285;52.128;21.060;2022-12-19T19:53:34;40.47;;;20.20;;
43682;SDS011;29285;52.128;21.060;2022-12-19T19:58:36;41.23;;;21.67;;
43682;SDS011;29285;52.128;21.060;2022-12-19T20:03:37;43.03;;;20.90;;
43682;SDS011;29285;52.128;21.060;2022-12-19T20:08:41;36.75;;;18.50;;
43682;SDS011;29285;52.128;21.060;2022-12-19T20:13:42;43.60;;;20.03;;
43682;SDS011;29285;52.128;21.060;2022-12-19T20:18:48;44.07;;;21.13;;
43682;SDS011;29285;52.128;21.060;2022-12-19T20:23:51;32.53;;;16.83;;
43682;SDS011;29285;52.128;21.060;2022-12-19T20:28:52;36.93;;;19.23;;
43682;SDS011;29285;52.128;21.060;2022-12-19T20:33:54;43.10;;;22.13;;
43682;SDS011;29285;52.128;21.060;2022-12-19T20:38:55;44.13;;;20.20;;
43682;SDS011;29285;52.128;21.060;2022-12-19T20:43:56;39.33;;;18.60;;
43682;SDS011;29285;52.128;21.060;2022-12-19T20:48:58;42.87;;;19.73;;
43682;SDS011;29285;52.128;21.060;2022-12-19T20:53:59;43.53;;;19.83;;
43682;SDS011;29285;52.128;21.060;2022-12-19T20:59:00;42.43;;;20.63;;
43682;SDS011;29285;52.128;21.060;2022-12-19T21:04:02;39.90;;;19.40;;
43682;SDS011;29285;52.128;21.060;2022-12-19T21:09:04;43.53;;;21.03;;
43682;SDS011;29285;52.128;21.060;2022-12-19T21:14:05;40.07;;;19.77;;
43682;SDS011;29285;52.128;21.060;2022-12-19T21:19:07;42.87;;;20.63;;
43682;SDS011;29285;52.128;21.060;2022-12-19T21:24:08;38.20;;;18.70;;
43682;SDS011;29285;52.128;21.060;2022-12-19T21:29:10;28.07;;;12.80;;
43682;SDS011;29285;52.128;21.060;2022-12-19T21:34:11;45.60;;;21.77;;
43682;SDS011;29285;52.128;21.060;2022-12-19T21:39:12;41.93;;;19.30;;
43682;SDS011;29285;52.128;21.060;2022-12-19T21:44:14;47.23;;;20.80;;
43682;SDS011;29285;52.128;21.060;2022-12-19T21:49:15;36.40;;;16.67;;
43682;SDS011;29285;52.128;21.060;2022-12-19T21:54:16;42.17;;;19.80;;
43682;SDS011;29285;52.128;21.060;2022-12-19T21:59:17;38.27;;;18.77;;
43682;SDS011;29285;52.128;21.060;2022-12-19T22:04:19;38.40;;;18.17;;
43682;SDS011;29285;52.128;21.060;2022-12-19T22:09:23;39.57;;;18.00;;
43682;SDS011;29285;52.128;21.060;2022-12-19T22:14:24;38.23;;;19.53;;
43682;SDS011;29285;52.128;21.060;2022-12-19T22:19:26;44.97;;;20.17;;
43682;SDS011;29285;52.128;21.060;2022-12-19T22:24:28;35.30;;;17.90;;
43682;SDS011;29285;52.128;21.060;2022-12-19T22:29:29;35.37;;;17.07;;
43682;SDS011;29285;52.128;21.060;2022-12-19T22:34:32;32.23;;;15.67;;
43682;SDS011;29285;52.128;21.060;2022-12-19T22:39:34;29.90;;;15.03;;
43682;SDS011;29285;52.128;21.060;2022-12-19T22:44:35;37.00;;;16.73;;
43682;SDS011;29285;52.128;21.060;2022-12-19T22:49:36;40.37;;;19.87;;
43682;SDS011;29285;52.128;21.060;2022-12-19T22:54:37;36.50;;;16.53;;
43682;SDS011;29285;52.128;21.060;2022-12-19T22:59:39;36.57;;;17.53;;
43682;SDS011;29285;52.128;21.060;2022-12-19T23:04:41;35.27;;;17.07;;
43682;SDS011;29285;52.128;21.060;2022-12-19T23:09:42;36.80;;;17.70;;
43682;SDS011;29285;52.128;21.060;2022-12-19T23:14:44;33.13;;;16.70;;
43682;SDS011;29285;52.128;21.060;2022-12-19T23:19:45;33.90;;;15.57;;
43682;SDS011;29285;52.128;21.060;2022-12-19T23:24:46;26.93;;;13.43;;
43682;SDS011;29285;52.128;21.060;2022-12-19T23:29:48;33.60;;;14.07;;
43682;SDS011;29285;52.128;21.060;2022-12-19T23:34:49;36.97;;;16.50;;
43682;SDS011;29285;52.128;21.060;2022-12-19T23:39:51;33.93;;;16.20;;
43682;SDS011;29285;52.128;21.060;2022-12-19T23:44:52;37.80;;;17.50;;
43682;SDS011;29285;52.128;21.060;2022-12-19T23:49:53;39.03;;;19.73;;
43682;SDS011;29285;52.128;21.060;2022-12-19T23:54:54;37.37;;;18.57;;
43682;SDS011;29285;52.128;21.060;2022-12-19T23:59:56;33.67;;;16.83;;
